sensor_id;sensor_type;location;lat;lon;timestamp;temperature;humidity
39847;DHT22;25517;52.422;10.782;2023-09-19T00:01:06;16.10;99.90
39847;DHT22;25517;52.422;10.782;2023-09-19T00:03:35;16.10;99.90
39847;DHT22;25517;52.422;10.782;2023-09-19T00:06:04;16.10;99.90
39847;DHT22;25517;52.422;10.782;2023-09-19T00:08:30;16.10;99.90
39847;DHT22;25517;52.422;10.782;2023-09-19T00:10:56;16.10;99.90
39847;DHT22;25517;52.422;10.782;2023-09-19T00:13:22;16.10;99.90
39847;DHT22;25517;52.422;10.782;2023-09-19T00:15:48;16.10;99.90
39847;DHT22;25517;52.422;10.782;2023-09-19T00:18:14;16.10;99.90
39847;DHT22;25517;52.422;10.782;2023-09-19T00:20:41;16.10;99.90
39847;DHT22;25517;52.422;10.782;2023-09-19T00:23:07;16.00;99.90
39847;DHT22;25517;52.422;10.782;2023-09-19T00:25:37;16.00;99.90
39847;DHT22;25517;52.422;10.782;2023-09-19T00:28:06;16.00;99.90
39847;DHT22;25517;52.422;10.782;2023-09-19T00:30:33;16.00;99.90
39847;DHT22;25517;52.422;10.782;2023-09-19T00:32:59;16.00;99.90
39847;DHT22;25517;52.422;10.782;2023-09-19T00:35:25;16.00;99.90
39847;DHT22;25517;52.422;10.782;2023-09-19T00:37:51;16.00;99.90
39847;DHT22;25517;52.422;10.782;2023-09-19T00:40:17;15.90;99.90
39847;DHT22;25517;52.422;10.782;2023-09-19T00:42:47;16.00;99.90
39847;DHT22;25517;52.422;10.782;2023-09-19T00:45:15;16.00;99.90
39847;DHT22;25517;52.422;10.782;2023-09-19T00:47:42;16.00;99.90
39847;DHT22;25517;52.422;10.782;2023-09-19T00:50:11;16.00;99.90
39847;DHT22;25517;52.422;10.782;2023-09-19T00:52:40;16.00;99.90
39847;DHT22;25517;52.422;10.782;2023-09-19T00:55:09;16.00;99.90
39847;DHT22;25517;52.422;10.782;2023-09-19T00:57:37;16.00;99.90
39847;DHT22;25517;52.422;10.782;2023-09-19T01:00:06;16.00;99.90
39847;DHT22;25517;52.422;10.782;2023-09-19T01:02:34;16.00;99.90
39847;DHT22;25517;52.422;10.782;2023-09-19T01:05:00;16.00;99.90
39847;DHT22;25517;52.422;10.782;2023-09-19T01:07:27;16.00;99.90
39847;DHT22;25517;52.422;10.782;2023-09-19T01:09:56;16.00;99.90
39847;DHT22;25517;52.422;10.782;2023-09-19T01:12:33;16.00;99.90
39847;DHT22;25517;52.422;10.782;2023-09-19T01:15:10;15.90;99.90
39847;DHT22;25517;52.422;10.782;2023-09-19T01:20:54;16.00;99.90
39847;DHT22;25517;52.422;10.782;2023-09-19T01:26:30;16.00;99.90
39847;DHT22;25517;52.422;10.782;2023-09-19T01:29:19;15.90;99.90
39847;DHT22;25517;52.422;10.782;2023-09-19T01:31:57;15.90;99.90
39847;DHT22;25517;52.422;10.782;2023-09-19T01:34:26;15.90;99.90
39847;DHT22;25517;52.422;10.782;2023-09-19T01:36:52;15.90;99.90
39847;DHT22;25517;52.422;10.782;2023-09-19T01:39:17;15.90;99.90
39847;DHT22;25517;52.422;10.782;2023-09-19T01:42:48;15.90;99.90
39847;DHT22;25517;52.422;10.782;2023-09-19T01:47:52;15.90;99.90
39847;DHT22;25517;52.422;10.782;2023-09-19T01:50:38;15.90;99.90
39847;DHT22;25517;52.422;10.782;2023-09-19T01:53:19;15.80;99.90
39847;DHT22;25517;52.422;10.782;2023-09-19T01:55:48;15.90;99.90
39847;DHT22;25517;52.422;10.782;2023-09-19T01:58:37;15.90;99.90
39847;DHT22;25517;52.422;10.782;2023-09-19T02:01:04;15.80;99.90
39847;DHT22;25517;52.422;10.782;2023-09-19T02:03:31;15.90;99.90
39847;DHT22;25517;52.422;10.782;2023-09-19T02:05:58;15.90;99.90
39847;DHT22;25517;52.422;10.782;2023-09-19T02:08:24;15.90;99.90
39847;DHT22;25517;52.422;10.782;2023-09-19T02:10:50;15.90;99.90
39847;DHT22;25517;52.422;10.782;2023-09-19T02:13:20;15.90;99.90
39847;DHT22;25517;52.422;10.782;2023-09-19T02:15:46;15.90;99.90
39847;DHT22;25517;52.422;10.782;2023-09-19T02:18:12;15.90;99.90
39847;DHT22;25517;52.422;10.782;2023-09-19T02:20:39;15.90;99.90
39847;DHT22;25517;52.422;10.782;2023-09-19T02:23:04;15.90;99.90
39847;DHT22;25517;52.422;10.782;2023-09-19T02:25:30;15.90;99.90
39847;DHT22;25517;52.422;10.782;2023-09-19T02:27:57;15.90;99.90
39847;DHT22;25517;52.422;10.782;2023-09-19T02:30:24;15.90;99.90
39847;DHT22;25517;52.422;10.782;2023-09-19T02:32:52;15.90;99.90
39847;DHT22;25517;52.422;10.782;2023-09-19T02:35:18;15.90;99.90
39847;DHT22;25517;52.422;10.782;2023-09-19T02:37:45;15.80;99.90
39847;DHT22;25517;52.422;10.782;2023-09-19T02:40:11;15.80;99.90
39847;DHT22;25517;52.422;10.782;2023-09-19T02:42:54;15.80;99.90
39847;DHT22;25517;52.422;10.782;2023-09-19T02:45:20;15.80;99.90
39847;DHT22;25517;52.422;10.782;2023-09-19T02:47:46;15.80;99.90
39847;DHT22;25517;52.422;10.782;2023-09-19T02:50:13;15.80;99.90
39847;DHT22;25517;52.422;10.782;2023-09-19T02:52:45;15.70;99.90
39847;DHT22;25517;52.422;10.782;2023-09-19T02:55:12;15.80;99.90
39847;DHT22;25517;52.422;10.782;2023-09-19T02:57:39;15.70;99.90
39847;DHT22;25517;52.422;10.782;2023-09-19T03:00:09;15.70;99.90
39847;DHT22;25517;52.422;10.782;2023-09-19T03:02:37;15.70;99.90
39847;DHT22;25517;52.422;10.782;2023-09-19T03:05:05;15.70;99.90
39847;DHT22;25517;52.422;10.782;2023-09-19T03:07:31;15.70;99.90
39847;DHT22;25517;52.422;10.782;2023-09-19T03:09:56;15.60;99.90
39847;DHT22;25517;52.422;10.782;2023-09-19T03:12:22;15.60;99.90
39847;DHT22;25517;52.422;10.782;2023-09-19T03:14:48;15.60;99.90
39847;DHT22;25517;52.422;10.782;2023-09-19T03:17:13;15.60;99.90
39847;DHT22;25517;52.422;10.782;2023-09-19T03:19:40;15.60;99.90
39847;DHT22;25517;52.422;10.782;2023-09-19T03:22:05;15.60;99.90
39847;DHT22;25517;52.422;10.782;2023-09-19T03:24:31;15.60;99.90
39847;DHT22;25517;52.422;10.782;2023-09-19T03:26:58;15.60;99.90
39847;DHT22;25517;52.422;10.782;2023-09-19T03:29:24;15.50;99.90
39847;DHT22;25517;52.422;10.782;2023-09-19T03:31:50;15.50;99.90
39847;DHT22;25517;52.422;10.782;2023-09-19T03:34:16;15.50;99.90
39847;DHT22;25517;52.422;10.782;2023-09-19T03:36:42;15.40;99.90
39847;DHT22;25517;52.422;10.782;2023-09-19T03:39:08;15.40;99.90
39847;DHT22;25517;52.422;10.782;2023-09-19T03:41:33;15.40;99.90
39847;DHT22;25517;52.422;10.782;2023-09-19T03:44:02;15.40;99.90
39847;DHT22;25517;52.422;10.782;2023-09-19T03:46:28;15.40;99.90
39847;DHT22;25517;52.422;10.782;2023-09-19T03:48:54;15.40;99.90
39847;DHT22;25517;52.422;10.782;2023-09-19T03:51:20;15.30;99.90
39847;DHT22;25517;52.422;10.782;2023-09-19T03:53:45;15.30;99.90
39847;DHT22;25517;52.422;10.782;2023-09-19T03:56:11;15.30;99.90
39847;DHT22;25517;52.422;10.782;2023-09-19T03:58:37;15.20;99.90
39847;DHT22;25517;52.422;10.782;2023-09-19T04:01:05;15.20;99.90
39847;DHT22;25517;52.422;10.782;2023-09-19T04:03:33;15.20;99.90
39847;DHT22;25517;52.422;10.782;2023-09-19T04:06:15;15.20;99.90
39847;DHT22;25517;52.422;10.782;2023-09-19T04:08:41;15.20;99.90
39847;DHT22;25517;52.422;10.782;2023-09-19T04:11:06;15.10;99.90
39847;DHT22;25517;52.422;10.782;2023-09-19T04:13:32;15.10;99.90
39847;DHT22;25517;52.422;10.782;2023-09-19T04:15:58;15.10;99.90
39847;DHT22;25517;52.422;10.782;2023-09-19T04:18:23;15.10;99.90
39847;DHT22;25517;52.422;10.782;2023-09-19T04:20:50;15.10;99.90
39847;DHT22;25517;52.422;10.782;2023-09-19T04:23:15;15.20;99.90
39847;DHT22;25517;52.422;10.782;2023-09-19T04:25:42;15.20;99.90
39847;DHT22;25517;52.422;10.782;2023-09-19T04:28:08;15.20;99.90
39847;DHT22;25517;52.422;10.782;2023-09-19T04:30:35;15.30;99.90
39847;DHT22;25517;52.422;10.782;2023-09-19T04:33:01;15.30;99.90
39847;DHT22;25517;52.422;10.782;2023-09-19T04:35:27;15.30;99.90
39847;DHT22;25517;52.422;10.782;2023-09-19T04:37:54;15.30;99.90
39847;DHT22;25517;52.422;10.782;2023-09-19T04:40:20;15.30;99.90
39847;DHT22;25517;52.422;10.782;2023-09-19T04:42:53;15.40;99.90
39847;DHT22;25517;52.422;10.782;2023-09-19T04:45:24;15.40;99.90
39847;DHT22;25517;52.422;10.782;2023-09-19T04:47:50;15.50;99.90
39847;DHT22;25517;52.422;10.782;2023-09-19T04:50:16;15.50;99.90
39847;DHT22;25517;52.422;10.782;2023-09-19T04:52:42;15.50;99.90
39847;DHT22;25517;52.422;10.782;2023-09-19T04:55:18;15.50;99.90
39847;DHT22;25517;52.422;10.782;2023-09-19T04:57:47;15.50;99.90
39847;DHT22;25517;52.422;10.782;2023-09-19T05:00:14;15.50;99.90
39847;DHT22;25517;52.422;10.782;2023-09-19T05:02:41;15.50;99.90
39847;DHT22;25517;52.422;10.782;2023-09-19T05:05:08;15.50;99.90
39847;DHT22;25517;52.422;10.782;2023-09-19T05:07:34;15.50;99.90
39847;DHT22;25517;52.422;10.782;2023-09-19T05:10:00;15.40;99.90
39847;DHT22;25517;52.422;10.782;2023-09-19T05:12:28;15.40;99.90
39847;DHT22;25517;52.422;10.782;2023-09-19T05:14:55;15.40;99.90
39847;DHT22;25517;52.422;10.782;2023-09-19T05:17:20;15.40;99.90
39847;DHT22;25517;52.422;10.782;2023-09-19T05:19:46;15.30;99.90
39847;DHT22;25517;52.422;10.782;2023-09-19T05:22:12;15.30;99.90
39847;DHT22;25517;52.422;10.782;2023-09-19T05:24:38;15.30;99.90
39847;DHT22;25517;52.422;10.782;2023-09-19T05:27:04;15.40;99.90
39847;DHT22;25517;52.422;10.782;2023-09-19T05:29:32;15.40;99.90
39847;DHT22;25517;52.422;10.782;2023-09-19T05:31:59;15.40;99.90
39847;DHT22;25517;52.422;10.782;2023-09-19T05:34:24;15.40;99.90
39847;DHT22;25517;52.422;10.782;2023-09-19T05:36:53;15.40;99.90
39847;DHT22;25517;52.422;10.782;2023-09-19T05:39:20;15.40;99.90
39847;DHT22;25517;52.422;10.782;2023-09-19T05:41:46;15.40;99.90
39847;DHT22;25517;52.422;10.782;2023-09-19T05:44:13;15.50;99.90
39847;DHT22;25517;52.422;10.782;2023-09-19T05:46:39;15.50;99.90
39847;DHT22;25517;52.422;10.782;2023-09-19T05:49:05;15.50;99.90
39847;DHT22;25517;52.422;10.782;2023-09-19T05:51:30;15.50;99.90
39847;DHT22;25517;52.422;10.782;2023-09-19T05:53:56;15.40;99.90
39847;DHT22;25517;52.422;10.782;2023-09-19T05:56:23;15.40;99.90
39847;DHT22;25517;52.422;10.782;2023-09-19T05:58:49;15.40;99.90
39847;DHT22;25517;52.422;10.782;2023-09-19T06:01:18;15.40;99.90
39847;DHT22;25517;52.422;10.782;2023-09-19T06:03:44;15.40;99.90
39847;DHT22;25517;52.422;10.782;2023-09-19T06:06:09;15.30;99.90
39847;DHT22;25517;52.422;10.782;2023-09-19T06:08:35;15.30;99.90
39847;DHT22;25517;52.422;10.782;2023-09-19T06:11:01;15.30;99.90
39847;DHT22;25517;52.422;10.782;2023-09-19T06:13:29;15.30;99.90
39847;DHT22;25517;52.422;10.782;2023-09-19T06:15:55;15.30;99.90
39847;DHT22;25517;52.422;10.782;2023-09-19T06:18:23;15.30;99.90
39847;DHT22;25517;52.422;10.782;2023-09-19T06:20:51;15.30;99.90
39847;DHT22;25517;52.422;10.782;2023-09-19T06:23:17;15.30;99.90
39847;DHT22;25517;52.422;10.782;2023-09-19T06:25:43;15.30;99.90
39847;DHT22;25517;52.422;10.782;2023-09-19T06:28:09;15.20;99.90
39847;DHT22;25517;52.422;10.782;2023-09-19T06:30:38;15.30;99.90
39847;DHT22;25517;52.422;10.782;2023-09-19T06:33:07;15.40;99.90
39847;DHT22;25517;52.422;10.782;2023-09-19T06:35:33;15.40;99.90
39847;DHT22;25517;52.422;10.782;2023-09-19T06:38:02;15.40;99.90
39847;DHT22;25517;52.422;10.782;2023-09-19T06:40:28;15.50;99.90
39847;DHT22;25517;52.422;10.782;2023-09-19T06:42:54;15.50;99.90
39847;DHT22;25517;52.422;10.782;2023-09-19T06:45:21;15.50;99.90
39847;DHT22;25517;52.422;10.782;2023-09-19T06:47:51;15.60;99.90
39847;DHT22;25517;52.422;10.782;2023-09-19T06:50:21;15.60;99.90
39847;DHT22;25517;52.422;10.782;2023-09-19T06:52:49;15.70;99.90
39847;DHT22;25517;52.422;10.782;2023-09-19T06:55:16;15.80;99.90
39847;DHT22;25517;52.422;10.782;2023-09-19T06:57:44;15.90;99.90
39847;DHT22;25517;52.422;10.782;2023-09-19T07:00:11;15.90;99.90
39847;DHT22;25517;52.422;10.782;2023-09-19T07:03:00;15.90;99.90
39847;DHT22;25517;52.422;10.782;2023-09-19T07:05:37;15.90;99.90
39847;DHT22;25517;52.422;10.782;2023-09-19T07:08:05;16.00;99.90
39847;DHT22;25517;52.422;10.782;2023-09-19T07:10:32;15.90;99.90
39847;DHT22;25517;52.422;10.782;2023-09-19T07:13:05;16.00;99.90
39847;DHT22;25517;52.422;10.782;2023-09-19T07:15:38;16.00;99.90
39847;DHT22;25517;52.422;10.782;2023-09-19T07:18:07;16.00;99.90
39847;DHT22;25517;52.422;10.782;2023-09-19T07:20:36;16.00;99.90
39847;DHT22;25517;52.422;10.782;2023-09-19T07:23:02;16.10;99.90
39847;DHT22;25517;52.422;10.782;2023-09-19T07:25:28;16.10;99.90
39847;DHT22;25517;52.422;10.782;2023-09-19T07:28:00;16.10;99.90
39847;DHT22;25517;52.422;10.782;2023-09-19T07:30:26;16.20;99.90
39847;DHT22;25517;52.422;10.782;2023-09-19T07:32:52;16.20;99.90
39847;DHT22;25517;52.422;10.782;2023-09-19T07:35:18;16.30;99.90
39847;DHT22;25517;52.422;10.782;2023-09-19T07:37:46;16.30;99.90
39847;DHT22;25517;52.422;10.782;2023-09-19T07:40:15;16.40;99.90
39847;DHT22;25517;52.422;10.782;2023-09-19T07:42:41;16.50;99.90
39847;DHT22;25517;52.422;10.782;2023-09-19T07:45:08;16.50;99.90
39847;DHT22;25517;52.422;10.782;2023-09-19T07:47:34;16.60;99.90
39847;DHT22;25517;52.422;10.782;2023-09-19T07:50:01;16.70;99.90
39847;DHT22;25517;52.422;10.782;2023-09-19T07:52:28;16.80;99.90
39847;DHT22;25517;52.422;10.782;2023-09-19T07:54:54;16.80;99.90
39847;DHT22;25517;52.422;10.782;2023-09-19T07:57:20;16.90;99.90
39847;DHT22;25517;52.422;10.782;2023-09-19T07:59:45;17.10;99.90
39847;DHT22;25517;52.422;10.782;2023-09-19T08:02:11;17.10;99.90
39847;DHT22;25517;52.422;10.782;2023-09-19T08:04:45;17.10;99.90
39847;DHT22;25517;52.422;10.782;2023-09-19T08:07:14;17.10;99.90
39847;DHT22;25517;52.422;10.782;2023-09-19T08:09:40;17.20;99.90
39847;DHT22;25517;52.422;10.782;2023-09-19T08:12:07;17.30;99.90
39847;DHT22;25517;52.422;10.782;2023-09-19T08:14:37;17.60;99.90
39847;DHT22;25517;52.422;10.782;2023-09-19T08:17:03;18.20;99.90
39847;DHT22;25517;52.422;10.782;2023-09-19T08:19:31;18.30;99.90
39847;DHT22;25517;52.422;10.782;2023-09-19T08:21:58;19.30;99.90
39847;DHT22;25517;52.422;10.782;2023-09-19T08:24:30;20.40;99.90
39847;DHT22;25517;52.422;10.782;2023-09-19T08:26:56;21.60;97.10
39847;DHT22;25517;52.422;10.782;2023-09-19T08:29:23;22.80;93.90
39847;DHT22;25517;52.422;10.782;2023-09-19T08:31:56;23.60;92.00
39847;DHT22;25517;52.422;10.782;2023-09-19T08:34:25;23.60;89.30
39847;DHT22;25517;52.422;10.782;2023-09-19T08:36:52;23.60;88.80
39847;DHT22;25517;52.422;10.782;2023-09-19T08:39:22;23.70;87.40
39847;DHT22;25517;52.422;10.782;2023-09-19T08:41:47;23.30;88.00
39847;DHT22;25517;52.422;10.782;2023-09-19T08:44:13;23.10;87.10
39847;DHT22;25517;52.422;10.782;2023-09-19T08:46:41;23.00;87.00
39847;DHT22;25517;52.422;10.782;2023-09-19T08:49:15;22.90;88.10
39847;DHT22;25517;52.422;10.782;2023-09-19T08:51:48;23.00;86.80
39847;DHT22;25517;52.422;10.782;2023-09-19T08:54:25;23.20;85.70
39847;DHT22;25517;52.422;10.782;2023-09-19T08:56:55;22.60;87.20
39847;DHT22;25517;52.422;10.782;2023-09-19T08:59:22;22.10;88.00
39847;DHT22;25517;52.422;10.782;2023-09-19T09:01:53;21.80;88.70
39847;DHT22;25517;52.422;10.782;2023-09-19T09:04:19;21.60;88.60
39847;DHT22;25517;52.422;10.782;2023-09-19T09:06:45;21.50;89.50
39847;DHT22;25517;52.422;10.782;2023-09-19T09:09:17;21.80;89.30
39847;DHT22;25517;52.422;10.782;2023-09-19T09:11:42;21.60;89.20
39847;DHT22;25517;52.422;10.782;2023-09-19T09:14:08;22.10;90.00
39847;DHT22;25517;52.422;10.782;2023-09-19T09:16:34;23.00;87.90
39847;DHT22;25517;52.422;10.782;2023-09-19T09:19:00;23.50;87.00
39847;DHT22;25517;52.422;10.782;2023-09-19T09:21:26;23.90;84.60
39847;DHT22;25517;52.422;10.782;2023-09-19T09:23:52;23.70;83.30
39847;DHT22;25517;52.422;10.782;2023-09-19T09:29:04;23.50;84.10
39847;DHT22;25517;52.422;10.782;2023-09-19T09:31:29;23.80;82.80
39847;DHT22;25517;52.422;10.782;2023-09-19T09:33:55;24.40;81.70
39847;DHT22;25517;52.422;10.782;2023-09-19T09:36:34;24.40;80.10
39847;DHT22;25517;52.422;10.782;2023-09-19T09:39:02;23.70;81.90
39847;DHT22;25517;52.422;10.782;2023-09-19T09:41:41;23.80;83.20
39847;DHT22;25517;52.422;10.782;2023-09-19T09:44:17;24.10;81.30
39847;DHT22;25517;52.422;10.782;2023-09-19T09:46:45;24.70;80.30
39847;DHT22;25517;52.422;10.782;2023-09-19T09:49:23;25.00;80.30
39847;DHT22;25517;52.422;10.782;2023-09-19T09:52:05;25.40;79.90
39847;DHT22;25517;52.422;10.782;2023-09-19T09:54:58;25.70;78.40
39847;DHT22;25517;52.422;10.782;2023-09-19T09:57:25;25.00;76.80
39847;DHT22;25517;52.422;10.782;2023-09-19T09:59:56;23.70;79.60
39847;DHT22;25517;52.422;10.782;2023-09-19T10:02:42;22.80;82.00
39847;DHT22;25517;52.422;10.782;2023-09-19T10:05:13;22.60;83.40
39847;DHT22;25517;52.422;10.782;2023-09-19T10:07:50;23.00;82.60
39847;DHT22;25517;52.422;10.782;2023-09-19T10:10:36;23.50;81.80
39847;DHT22;25517;52.422;10.782;2023-09-19T10:13:09;23.50;79.70
39847;DHT22;25517;52.422;10.782;2023-09-19T10:15:38;22.50;81.70
39847;DHT22;25517;52.422;10.782;2023-09-19T10:18:07;23.00;81.50
39847;DHT22;25517;52.422;10.782;2023-09-19T10:20:37;23.20;81.90
39847;DHT22;25517;52.422;10.782;2023-09-19T10:23:10;23.80;82.60
39847;DHT22;25517;52.422;10.782;2023-09-19T10:25:40;24.40;79.50
39847;DHT22;25517;52.422;10.782;2023-09-19T10:28:08;24.20;79.60
39847;DHT22;25517;52.422;10.782;2023-09-19T10:30:43;24.60;78.50
39847;DHT22;25517;52.422;10.782;2023-09-19T10:33:13;24.30;77.90
39847;DHT22;25517;52.422;10.782;2023-09-19T10:35:42;24.00;78.90
39847;DHT22;25517;52.422;10.782;2023-09-19T10:38:10;23.50;79.00
39847;DHT22;25517;52.422;10.782;2023-09-19T10:40:37;23.70;79.10
39847;DHT22;25517;52.422;10.782;2023-09-19T10:43:05;24.10;80.10
39847;DHT22;25517;52.422;10.782;2023-09-19T10:45:33;24.60;78.10
39847;DHT22;25517;52.422;10.782;2023-09-19T10:48:02;24.10;80.00
39847;DHT22;25517;52.422;10.782;2023-09-19T10:50:50;23.90;78.80
39847;DHT22;25517;52.422;10.782;2023-09-19T10:53:17;23.50;79.80
39847;DHT22;25517;52.422;10.782;2023-09-19T10:55:52;23.50;80.80
39847;DHT22;25517;52.422;10.782;2023-09-19T10:58:31;23.60;81.00
39847;DHT22;25517;52.422;10.782;2023-09-19T11:01:00;24.00;78.60
39847;DHT22;25517;52.422;10.782;2023-09-19T11:03:41;23.90;78.60
39847;DHT22;25517;52.422;10.782;2023-09-19T11:06:17;23.50;78.80
39847;DHT22;25517;52.422;10.782;2023-09-19T11:08:58;23.40;78.00
39847;DHT22;25517;52.422;10.782;2023-09-19T11:33:18;22.40;82.70
39847;DHT22;25517;52.422;10.782;2023-09-19T11:36:12;22.80;80.10
39847;DHT22;25517;52.422;10.782;2023-09-19T11:43:52;23.30;78.60
39847;DHT22;25517;52.422;10.782;2023-09-19T11:46:20;22.50;79.90
39847;DHT22;25517;52.422;10.782;2023-09-19T11:48:49;22.60;81.20
39847;DHT22;25517;52.422;10.782;2023-09-19T11:51:23;22.60;80.20
39847;DHT22;25517;52.422;10.782;2023-09-19T11:53:53;22.30;80.30
39847;DHT22;25517;52.422;10.782;2023-09-19T11:56:24;22.20;81.70
39847;DHT22;25517;52.422;10.782;2023-09-19T11:58:52;22.40;82.10
39847;DHT22;25517;52.422;10.782;2023-09-19T12:01:22;22.40;81.60
39847;DHT22;25517;52.422;10.782;2023-09-19T12:03:53;22.20;80.70
39847;DHT22;25517;52.422;10.782;2023-09-19T12:06:20;22.10;81.20
39847;DHT22;25517;52.422;10.782;2023-09-19T12:08:47;22.20;82.50
39847;DHT22;25517;52.422;10.782;2023-09-19T12:11:15;22.20;82.00
39847;DHT22;25517;52.422;10.782;2023-09-19T12:13:46;22.30;81.70
39847;DHT22;25517;52.422;10.782;2023-09-19T12:16:14;22.40;80.10
39847;DHT22;25517;52.422;10.782;2023-09-19T12:18:43;22.30;80.20
39847;DHT22;25517;52.422;10.782;2023-09-19T12:21:30;22.10;80.40
39847;DHT22;25517;52.422;10.782;2023-09-19T12:24:11;22.10;82.30
39847;DHT22;25517;52.422;10.782;2023-09-19T12:26:43;22.20;81.40
39847;DHT22;25517;52.422;10.782;2023-09-19T12:29:12;22.30;80.50
39847;DHT22;25517;52.422;10.782;2023-09-19T12:34:23;22.10;82.00
39847;DHT22;25517;52.422;10.782;2023-09-19T12:37:04;22.30;79.80
39847;DHT22;25517;52.422;10.782;2023-09-19T12:39:31;22.30;80.40
39847;DHT22;25517;52.422;10.782;2023-09-19T12:41:57;22.30;80.30
39847;DHT22;25517;52.422;10.782;2023-09-19T12:44:22;22.40;79.80
39847;DHT22;25517;52.422;10.782;2023-09-19T12:46:50;22.40;78.50
39847;DHT22;25517;52.422;10.782;2023-09-19T12:49:19;22.20;80.40
39847;DHT22;25517;52.422;10.782;2023-09-19T12:51:48;22.30;80.40
39847;DHT22;25517;52.422;10.782;2023-09-19T12:54:15;22.20;81.00
39847;DHT22;25517;52.422;10.782;2023-09-19T12:56:44;22.40;80.70
39847;DHT22;25517;52.422;10.782;2023-09-19T12:59:12;22.40;81.10
39847;DHT22;25517;52.422;10.782;2023-09-19T13:01:42;22.40;79.50
39847;DHT22;25517;52.422;10.782;2023-09-19T13:06:43;22.30;80.30
39847;DHT22;25517;52.422;10.782;2023-09-19T13:09:10;22.10;80.00
39847;DHT22;25517;52.422;10.782;2023-09-19T13:11:37;22.00;82.40
39847;DHT22;25517;52.422;10.782;2023-09-19T13:14:16;21.80;82.10
39847;DHT22;25517;52.422;10.782;2023-09-19T13:17:01;21.90;82.20
39847;DHT22;25517;52.422;10.782;2023-09-19T13:22:35;21.70;81.70
39847;DHT22;25517;52.422;10.782;2023-09-19T13:24:51;21.60;83.50
39847;DHT22;25517;52.422;10.782;2023-09-19T13:27:17;21.50;81.70
39847;DHT22;25517;52.422;10.782;2023-09-19T13:29:42;21.60;84.00
39847;DHT22;25517;52.422;10.782;2023-09-19T13:32:08;21.40;81.80
39847;DHT22;25517;52.422;10.782;2023-09-19T13:34:36;21.30;82.60
39847;DHT22;25517;52.422;10.782;2023-09-19T13:37:03;21.20;82.50
39847;DHT22;25517;52.422;10.782;2023-09-19T13:39:30;21.10;81.90
39847;DHT22;25517;52.422;10.782;2023-09-19T13:41:55;21.20;83.00
39847;DHT22;25517;52.422;10.782;2023-09-19T13:44:21;21.30;83.90
39847;DHT22;25517;52.422;10.782;2023-09-19T13:46:46;21.40;85.10
39847;DHT22;25517;52.422;10.782;2023-09-19T13:49:12;21.60;83.80
39847;DHT22;25517;52.422;10.782;2023-09-19T13:51:37;21.50;85.20
39847;DHT22;25517;52.422;10.782;2023-09-19T13:54:03;21.60;83.80
39847;DHT22;25517;52.422;10.782;2023-09-19T13:56:28;21.40;82.80
39847;DHT22;25517;52.422;10.782;2023-09-19T13:58:55;21.40;82.20
39847;DHT22;25517;52.422;10.782;2023-09-19T14:01:21;21.70;83.50
39847;DHT22;25517;52.422;10.782;2023-09-19T14:03:46;21.60;81.50
39847;DHT22;25517;52.422;10.782;2023-09-19T14:06:17;21.40;83.70
39847;DHT22;25517;52.422;10.782;2023-09-19T14:08:44;21.30;83.10
39847;DHT22;25517;52.422;10.782;2023-09-19T14:11:13;21.50;83.90
39847;DHT22;25517;52.422;10.782;2023-09-19T14:13:39;21.80;83.50
39847;DHT22;25517;52.422;10.782;2023-09-19T14:16:06;21.70;84.10
39847;DHT22;25517;52.422;10.782;2023-09-19T14:18:32;21.70;80.90
39847;DHT22;25517;52.422;10.782;2023-09-19T14:20:58;21.60;83.10
39847;DHT22;25517;52.422;10.782;2023-09-19T14:23:23;21.70;81.80
39847;DHT22;25517;52.422;10.782;2023-09-19T14:25:50;21.80;82.20
39847;DHT22;25517;52.422;10.782;2023-09-19T14:28:17;21.90;83.50
39847;DHT22;25517;52.422;10.782;2023-09-19T14:30:43;21.90;83.10
39847;DHT22;25517;52.422;10.782;2023-09-19T14:33:09;21.90;82.80
39847;DHT22;25517;52.422;10.782;2023-09-19T14:35:37;21.70;82.20
39847;DHT22;25517;52.422;10.782;2023-09-19T14:38:03;21.30;82.50
39847;DHT22;25517;52.422;10.782;2023-09-19T14:40:29;21.30;82.80
39847;DHT22;25517;52.422;10.782;2023-09-19T14:42:54;21.20;84.20
39847;DHT22;25517;52.422;10.782;2023-09-19T14:45:20;21.00;83.80
39847;DHT22;25517;52.422;10.782;2023-09-19T14:47:46;20.90;84.40
39847;DHT22;25517;52.422;10.782;2023-09-19T14:50:12;20.90;83.80
39847;DHT22;25517;52.422;10.782;2023-09-19T14:52:38;20.80;83.20
39847;DHT22;25517;52.422;10.782;2023-09-19T14:55:05;20.90;84.00
39847;DHT22;25517;52.422;10.782;2023-09-19T14:57:31;21.00;82.80
39847;DHT22;25517;52.422;10.782;2023-09-19T14:59:57;21.00;84.30
39847;DHT22;25517;52.422;10.782;2023-09-19T15:02:23;21.00;83.20
39847;DHT22;25517;52.422;10.782;2023-09-19T15:04:48;21.10;83.70
39847;DHT22;25517;52.422;10.782;2023-09-19T15:07:16;21.10;83.30
39847;DHT22;25517;52.422;10.782;2023-09-19T15:09:43;21.10;83.80
39847;DHT22;25517;52.422;10.782;2023-09-19T15:12:09;21.10;82.40
39847;DHT22;25517;52.422;10.782;2023-09-19T15:14:40;20.90;83.20
39847;DHT22;25517;52.422;10.782;2023-09-19T15:17:07;20.80;82.50
39847;DHT22;25517;52.422;10.782;2023-09-19T15:19:32;20.70;84.60
39847;DHT22;25517;52.422;10.782;2023-09-19T15:21:58;20.70;84.40
39847;DHT22;25517;52.422;10.782;2023-09-19T15:24:24;20.60;84.40
39847;DHT22;25517;52.422;10.782;2023-09-19T15:26:52;20.40;85.10
39847;DHT22;25517;52.422;10.782;2023-09-19T15:29:17;20.40;85.70
39847;DHT22;25517;52.422;10.782;2023-09-19T15:31:43;20.40;84.80
39847;DHT22;25517;52.422;10.782;2023-09-19T15:34:08;20.30;85.10
39847;DHT22;25517;52.422;10.782;2023-09-19T15:36:34;20.40;85.90
39847;DHT22;25517;52.422;10.782;2023-09-19T15:39:04;20.30;85.80
39847;DHT22;25517;52.422;10.782;2023-09-19T15:41:35;20.20;86.10
39847;DHT22;25517;52.422;10.782;2023-09-19T15:44:04;20.20;85.10
39847;DHT22;25517;52.422;10.782;2023-09-19T15:46:31;20.20;85.50
39847;DHT22;25517;52.422;10.782;2023-09-19T15:48:58;20.10;86.10
39847;DHT22;25517;52.422;10.782;2023-09-19T15:51:25;20.10;85.60
39847;DHT22;25517;52.422;10.782;2023-09-19T15:53:53;20.10;85.80
39847;DHT22;25517;52.422;10.782;2023-09-19T15:56:20;20.00;85.80
39847;DHT22;25517;52.422;10.782;2023-09-19T15:58:47;20.10;86.40
39847;DHT22;25517;52.422;10.782;2023-09-19T16:01:14;20.10;86.60
39847;DHT22;25517;52.422;10.782;2023-09-19T16:03:44;20.10;86.50
39847;DHT22;25517;52.422;10.782;2023-09-19T16:06:12;20.10;86.10
39847;DHT22;25517;52.422;10.782;2023-09-19T16:08:58;20.10;86.50
39847;DHT22;25517;52.422;10.782;2023-09-19T16:11:24;20.00;86.70